createdAt,value
2022-09-11T00:01:51.886Z,56.30
2022-09-11T00:04:54.480Z,56.20
2022-09-11T00:07:56.290Z,56.30
2022-09-11T00:11:01.851Z,56.60
2022-09-11T00:14:03.801Z,56.30
2022-09-11T00:17:05.147Z,56.30
2022-09-11T00:20:06.605Z,56.40
2022-09-11T00:23:08.279Z,56.40
2022-09-11T00:26:09.626Z,56.50
2022-09-11T00:29:11.681Z,56.40
2022-09-11T00:32:14.869Z,56.50
2022-09-11T00:35:16.174Z,56.40
2022-09-11T00:38:17.579Z,56.40
2022-09-11T00:41:20.727Z,56.50
2022-09-11T00:44:37.076Z,56.50
2022-09-11T00:47:42.601Z,56.60
2022-09-11T00:50:44.107Z,56.50
2022-09-11T00:53:46.329Z,56.50
2022-09-11T00:56:47.953Z,56.60
2022-09-11T00:59:55.183Z,56.60
2022-09-11T01:02:57.492Z,56.50
2022-09-11T01:05:59.044Z,56.50
2022-09-11T01:09:00.335Z,56.60
2022-09-11T01:12:04.530Z,56.60
2022-09-11T01:15:07.107Z,56.70
2022-09-11T01:18:14.208Z,56.70
2022-09-11T01:21:26.280Z,56.70
2022-09-11T01:24:41.442Z,56.60
2022-09-11T01:27:45.092Z,56.60
2022-09-11T01:30:50.443Z,56.60
2022-09-11T01:33:55.905Z,56.70
2022-09-11T01:36:59.096Z,56.60
2022-09-11T01:40:02.915Z,56.50
2022-09-11T01:43:09.268Z,56.70
2022-09-11T01:46:12.340Z,56.80
2022-09-11T01:49:15.753Z,56.70
2022-09-11T01:52:18.492Z,56.70
2022-09-11T01:55:23.303Z,56.70
2022-09-11T01:58:27.504Z,56.80
2022-09-11T02:01:32.816Z,56.60
2022-09-11T02:04:36.917Z,56.70
2022-09-11T02:07:41.750Z,56.70
2022-09-11T02:10:46.263Z,56.90
2022-09-11T02:13:53.176Z,56.60
2022-09-11T02:17:00.362Z,56.70
2022-09-11T02:20:02.211Z,56.80
2022-09-11T02:23:06.234Z,56.80
2022-09-11T02:26:08.926Z,57.00
2022-09-11T02:29:11.732Z,56.70
2022-09-11T02:32:13.481Z,56.90
2022-09-11T02:35:17.099Z,56.80
2022-09-11T02:38:24.222Z,56.80
2022-09-11T02:41:28.488Z,56.80
2022-09-11T02:44:35.693Z,56.90
2022-09-11T02:47:43.798Z,56.90
2022-09-11T02:50:49.736Z,56.70
2022-09-11T02:53:56.497Z,56.90
2022-09-11T02:57:04.883Z,56.70
2022-09-11T03:00:07.673Z,56.80
2022-09-11T03:03:09.343Z,56.80
2022-09-11T03:06:13.102Z,57.00
2022-09-11T03:09:15.074Z,56.90
2022-09-11T03:12:17.293Z,57.10
2022-09-11T03:15:23.517Z,56.80
2022-09-11T03:18:26.187Z,56.80
2022-09-11T03:21:27.558Z,56.90
2022-09-11T03:24:28.899Z,56.90
2022-09-11T03:27:30.171Z,56.90
2022-09-11T03:30:32.452Z,57.00
2022-09-11T03:33:37.376Z,56.90
2022-09-11T03:36:39.496Z,57.10
2022-09-11T03:39:40.822Z,56.90
2022-09-11T03:42:42.103Z,57.10
2022-09-11T03:45:44.135Z,56.90
2022-09-11T03:48:48.596Z,57.10
2022-09-11T03:51:49.871Z,56.90
2022-09-11T03:54:51.211Z,57.00
2022-09-11T03:57:52.520Z,56.80
2022-09-11T04:00:55.348Z,57.20
2022-09-11T04:03:59.939Z,56.90
2022-09-11T04:07:06.847Z,56.80
2022-09-11T04:10:08.744Z,57.10
2022-09-11T04:13:11.269Z,57.10
2022-09-11T04:16:14.151Z,57.10
2022-09-11T04:19:18.022Z,57.40
2022-09-11T04:22:19.943Z,57.10
2022-09-11T04:25:21.275Z,57.10
2022-09-11T04:28:23.519Z,56.90
2022-09-11T04:31:26.679Z,56.90
2022-09-11T04:34:28.597Z,57.00
2022-09-11T04:37:29.970Z,56.90
2022-09-11T04:40:31.892Z,57.00
2022-09-11T04:43:33.722Z,57.20
2022-09-11T04:46:37.516Z,56.90
2022-09-11T04:49:46.005Z,57.10
2022-09-11T04:52:47.245Z,57.10
2022-09-11T04:55:49.606Z,57.10
2022-09-11T04:58:53.267Z,57.00
2022-09-11T05:01:57.552Z,57.00
2022-09-11T05:04:59.371Z,57.00
2022-09-11T05:08:03.433Z,57.00
2022-09-11T05:11:04.793Z,57.00
2022-09-11T05:14:06.093Z,57.10
2022-09-11T05:17:12.585Z,57.20
2022-09-11T05:20:16.778Z,57.00
2022-09-11T05:23:18.107Z,57.20
2022-09-11T05:26:20.528Z,57.20
2022-09-11T05:29:22.462Z,57.20
2022-09-11T05:32:31.211Z,57.10
2022-09-11T05:35:33.023Z,57.00
2022-09-11T05:38:35.768Z,57.00
2022-09-11T05:41:37.885Z,57.00
2022-09-11T05:44:39.937Z,56.90
2022-09-11T05:47:42.267Z,57.20
2022-09-11T05:50:51.976Z,57.20
2022-09-11T05:53:54.535Z,56.80
2022-09-11T05:56:56.602Z,57.20
2022-09-11T06:00:00.333Z,57.20
2022-09-11T06:03:04.774Z,57.10
2022-09-11T06:06:08.185Z,57.10
2022-09-11T06:09:09.506Z,57.20
2022-09-11T06:12:11.638Z,57.10
2022-09-11T06:15:30.153Z,57.10
2022-09-11T06:18:35.460Z,57.00
2022-09-11T06:21:37.472Z,57.00
2022-09-11T06:24:46.292Z,57.20
2022-09-11T06:27:50.285Z,57.00
2022-09-11T06:30:52.322Z,57.00
2022-09-11T06:33:54.182Z,57.00
2022-09-11T06:36:55.779Z,56.90
2022-09-11T06:39:57.123Z,56.90
2022-09-11T06:43:02.000Z,57.20
2022-09-11T06:46:04.016Z,57.00
2022-09-11T06:49:07.574Z,57.00
2022-09-11T06:52:28.838Z,57.20
2022-09-11T06:55:40.689Z,57.00
2022-09-11T06:58:46.441Z,57.30
2022-09-11T07:01:48.339Z,57.10
2022-09-11T07:04:52.340Z,57.30
2022-09-11T07:07:56.187Z,57.00
2022-09-11T07:11:02.292Z,56.90
2022-09-11T07:14:05.524Z,56.80
2022-09-11T07:17:11.854Z,57.00
2022-09-11T07:20:16.846Z,57.20
2022-09-11T07:23:19.257Z,57.00
2022-09-11T07:26:21.568Z,57.00
2022-09-11T07:29:24.709Z,56.90
2022-09-11T07:32:26.531Z,56.90
2022-09-11T07:35:28.765Z,56.90
2022-09-11T07:38:32.313Z,56.70
2022-09-11T07:41:34.964Z,56.90
2022-09-11T07:44:40.779Z,56.70
2022-09-11T07:47:42.465Z,57.00
2022-09-11T07:50:54.682Z,57.00
2022-09-11T07:53:59.299Z,56.90
2022-09-11T07:57:03.840Z,56.60
2022-09-11T08:00:06.412Z,56.60
2022-09-11T08:03:21.262Z,56.70
2022-09-11T08:06:26.836Z,56.80
2022-09-11T08:09:28.867Z,56.60
2022-09-11T08:12:33.898Z,56.60
2022-09-11T08:15:35.343Z,56.70
2022-09-11T08:18:39.279Z,56.80
2022-09-11T08:21:41.190Z,56.80
2022-09-11T08:24:42.492Z,56.70
2022-09-11T08:27:46.352Z,56.60
2022-09-11T08:30:55.844Z,56.80
2022-09-11T08:33:57.515Z,56.60
2022-09-11T08:36:59.426Z,56.70
2022-09-11T08:40:04.227Z,56.70
2022-09-11T08:43:13.408Z,56.60
2022-09-11T08:46:16.233Z,56.60
2022-09-11T08:49:21.352Z,56.80
2022-09-11T08:52:23.344Z,56.60
2022-09-11T08:55:29.355Z,55.70
2022-09-11T08:58:36.408Z,56.50
2022-09-11T09:01:46.325Z,56.70
2022-09-11T09:04:57.461Z,56.50
2022-09-11T09:08:05.337Z,56.60
2022-09-11T09:11:13.999Z,56.50
2022-09-11T09:14:28.405Z,56.50
2022-09-11T09:17:35.216Z,56.50
2022-09-11T09:20:39.313Z,56.50
2022-09-11T09:23:44.266Z,56.20
2022-09-11T09:26:49.618Z,56.30
2022-09-11T09:29:53.949Z,56.30
2022-09-11T09:32:58.559Z,56.30
2022-09-11T09:36:10.741Z,56.30
2022-09-11T09:39:13.542Z,56.80
2022-09-11T09:42:23.829Z,56.20
2022-09-11T09:45:33.109Z,56.30
2022-09-11T09:48:38.844Z,56.00
2022-09-11T09:51:40.482Z,56.10
2022-09-11T09:54:42.598Z,56.20
2022-09-11T09:57:44.194Z,56.00
2022-09-11T10:00:45.432Z,56.10
2022-09-11T10:04:06.205Z,56.10
2022-09-11T10:07:09.825Z,56.00
2022-09-11T10:10:19.846Z,56.00
2022-09-11T10:13:25.509Z,56.00
2022-09-11T10:16:27.447Z,56.10
2022-09-11T10:19:34.282Z,56.00
2022-09-11T10:22:36.010Z,56.00
2022-09-11T10:25:46.972Z,56.10
2022-09-11T10:28:48.752Z,56.00
2022-09-11T10:31:50.915Z,55.80
2022-09-11T10:34:52.826Z,55.80
2022-09-11T10:38:07.046Z,56.00
2022-09-11T10:41:14.237Z,56.00
2022-09-11T10:44:16.889Z,55.70
2022-09-11T10:47:22.142Z,56.00
2022-09-11T10:50:24.781Z,55.90
2022-09-11T10:53:26.423Z,55.90
2022-09-11T10:56:28.434Z,55.70
2022-09-11T10:59:32.114Z,55.90
2022-09-11T11:02:34.391Z,55.90
2022-09-11T11:05:40.050Z,56.00
2022-09-11T11:08:58.968Z,55.80
2022-09-11T11:12:09.021Z,55.90
2022-09-11T11:15:30.218Z,56.60
2022-09-11T11:18:38.153Z,55.90
2022-09-11T11:21:46.805Z,56.10
2022-09-11T11:24:58.426Z,55.90
2022-09-11T11:28:10.916Z,55.70
2022-09-11T11:31:16.264Z,55.90
2022-09-11T11:34:22.939Z,55.80
2022-09-11T11:37:27.440Z,55.90
2022-09-11T11:40:31.291Z,55.60
2022-09-11T11:43:33.995Z,55.70
2022-09-11T11:46:38.215Z,55.70
2022-09-11T11:49:45.085Z,55.70
2022-09-11T11:52:52.366Z,55.80
2022-09-11T11:56:00.287Z,55.70
2022-09-11T11:59:10.319Z,55.70
2022-09-11T12:02:15.449Z,55.80
2022-09-11T12:05:18.193Z,55.70
2022-09-11T12:08:19.476Z,55.70
2022-09-11T12:11:26.054Z,55.60
2022-09-11T12:14:28.824Z,55.60
2022-09-11T12:17:31.926Z,55.60
2022-09-11T12:20:36.373Z,55.50
2022-09-11T12:23:52.500Z,55.40
2022-09-11T12:27:03.310Z,55.60
2022-09-11T12:30:08.983Z,55.70
2022-09-11T12:33:32.146Z,55.70
2022-09-11T12:36:42.595Z,55.60
2022-09-11T12:39:49.687Z,55.60
2022-09-11T12:42:55.746Z,55.80
2022-09-11T12:45:58.039Z,55.40
2022-09-11T12:49:21.788Z,55.80
2022-09-11T12:52:27.341Z,55.80
2022-09-11T12:55:30.947Z,55.60
2022-09-11T12:58:35.103Z,55.50
2022-09-11T13:01:42.890Z,55.60
2022-09-11T13:04:44.979Z,55.70
2022-09-11T13:07:49.918Z,55.60
2022-09-11T13:10:51.548Z,55.70
2022-09-11T13:13:59.030Z,55.50
2022-09-11T13:17:01.884Z,55.50
2022-09-11T13:20:20.632Z,55.60
2022-09-11T13:23:21.904Z,55.50
2022-09-11T13:26:25.315Z,55.70
2022-09-11T13:29:29.309Z,55.40
2022-09-11T13:32:34.660Z,55.60
2022-09-11T13:35:40.013Z,55.60
2022-09-11T13:38:43.150Z,55.60
2022-09-11T13:41:46.004Z,55.60
2022-09-11T13:44:48.863Z,55.30
2022-09-11T13:47:53.893Z,55.40
2022-09-11T13:50:57.614Z,55.60
2022-09-11T13:54:04.976Z,55.40
2022-09-11T13:57:15.380Z,55.60
2022-09-11T14:00:31.489Z,55.50
2022-09-11T14:03:33.551Z,55.60
2022-09-11T14:06:35.640Z,55.60
2022-09-11T14:09:36.933Z,55.50
2022-09-11T14:12:46.620Z,55.50
2022-09-11T14:15:49.821Z,55.50
2022-09-11T14:18:55.070Z,55.30
2022-09-11T14:22:01.164Z,55.40
2022-09-11T14:25:03.885Z,55.50
2022-09-11T14:28:06.740Z,55.30
2022-09-11T14:31:08.738Z,55.50
2022-09-11T14:34:15.072Z,55.40
2022-09-11T14:37:16.525Z,55.70
2022-09-11T14:40:18.696Z,55.30
2022-09-11T14:43:24.628Z,55.50
2022-09-11T14:46:25.880Z,55.30
2022-09-11T14:49:28.768Z,55.20
2022-09-11T14:52:30.344Z,55.40
2022-09-11T14:55:32.636Z,55.50
2022-09-11T14:58:33.847Z,55.40
2022-09-11T15:01:35.911Z,55.40
2022-09-11T15:04:38.114Z,55.30
2022-09-11T15:07:39.406Z,55.50
2022-09-11T15:10:40.679Z,55.40
2022-09-11T15:13:58.140Z,55.40
2022-09-11T15:17:05.539Z,55.40
2022-09-11T15:20:09.415Z,55.50
2022-09-11T15:23:10.926Z,55.40
2022-09-11T15:26:13.173Z,55.30
2022-09-11T15:29:14.434Z,55.40
2022-09-11T15:32:15.798Z,55.30
2022-09-11T15:35:18.047Z,55.50
2022-09-11T15:38:20.041Z,55.30
2022-09-11T15:41:21.906Z,55.30
2022-09-11T15:44:24.030Z,55.40
2022-09-11T15:47:25.261Z,55.30
2022-09-11T15:50:29.352Z,55.50
2022-09-11T15:53:32.035Z,55.30
2022-09-11T15:56:34.746Z,55.40
2022-09-11T15:59:36.046Z,55.30
2022-09-11T16:02:37.373Z,55.10
2022-09-11T16:05:41.360Z,55.30
2022-09-11T16:08:42.711Z,55.40
2022-09-11T16:11:44.942Z,55.30
2022-09-11T16:14:46.417Z,55.30
2022-09-11T16:17:47.648Z,55.30
2022-09-11T16:20:57.250Z,55.30
2022-09-11T16:24:06.083Z,55.30
2022-09-11T16:27:08.648Z,55.30
2022-09-11T16:30:43.233Z,55.10
2022-09-11T16:33:32.410Z,55.20
2022-09-11T16:36:37.583Z,55.20
2022-09-11T16:39:39.061Z,55.40
2022-09-11T16:42:40.366Z,55.30
2022-09-11T16:45:49.085Z,55.30
2022-09-11T16:48:54.010Z,55.20
2022-09-11T16:51:57.098Z,55.20
2022-09-11T16:55:01.609Z,55.10
2022-09-11T16:58:02.926Z,55.10
2022-09-11T17:01:04.506Z,55.10
2022-09-11T17:04:05.943Z,55.00
2022-09-11T17:07:07.795Z,55.00
2022-09-11T17:10:09.389Z,55.00
2022-09-11T17:13:11.398Z,55.00
2022-09-11T17:16:16.433Z,55.10
2022-09-11T17:19:18.106Z,55.20
2022-09-11T17:22:20.100Z,55.00
2022-09-11T17:25:21.612Z,54.90
2022-09-11T17:28:23.253Z,55.10
2022-09-11T17:31:25.324Z,54.90
2022-09-11T17:34:26.676Z,54.90
2022-09-11T17:37:28.495Z,55.10
2022-09-11T17:40:31.038Z,55.10
2022-09-11T17:43:32.511Z,55.00
2022-09-11T17:46:34.463Z,54.90
2022-09-11T17:49:35.732Z,54.80
2022-09-11T17:52:37.833Z,55.00
2022-09-11T17:55:39.774Z,54.90
2022-09-11T17:58:44.194Z,54.80
2022-09-11T18:01:45.624Z,54.80
2022-09-11T18:04:47.077Z,55.00
2022-09-11T18:07:50.130Z,54.90
2022-09-11T18:10:52.030Z,54.90
2022-09-11T18:13:53.943Z,55.10
2022-09-11T18:16:55.214Z,55.10
2022-09-11T18:19:56.459Z,55.10
2022-09-11T18:22:59.669Z,55.20
2022-09-11T18:26:01.219Z,54.90
2022-09-11T18:29:03.790Z,55.10
2022-09-11T18:32:05.758Z,55.10
2022-09-11T18:35:07.240Z,55.30
2022-09-11T18:38:09.141Z,55.20
2022-09-11T18:41:10.393Z,55.20
2022-09-11T18:44:17.425Z,55.30
2022-09-11T18:47:23.156Z,55.20
2022-09-11T18:50:24.447Z,55.10
2022-09-11T18:53:26.318Z,55.20
2022-09-11T18:56:28.648Z,55.20
2022-09-11T18:59:29.908Z,55.30
2022-09-11T19:02:31.143Z,55.10
2022-09-11T19:05:32.546Z,55.80
2022-09-11T19:08:36.514Z,55.30
2022-09-11T19:11:37.977Z,55.20
2022-09-11T19:14:39.331Z,55.00
2022-09-11T19:17:42.092Z,55.30
2022-09-11T19:20:43.500Z,55.20
2022-09-11T19:23:46.286Z,55.20
2022-09-11T19:26:52.122Z,55.20
2022-09-11T19:29:54.392Z,55.40
2022-09-11T19:32:55.714Z,55.20
2022-09-11T19:35:57.795Z,55.40
2022-09-11T19:39:01.099Z,55.40
2022-09-11T19:42:02.798Z,55.50
2022-09-11T19:45:05.051Z,55.30
2022-09-11T19:48:06.321Z,55.50
2022-09-11T19:51:08.302Z,55.30
2022-09-11T19:54:11.634Z,55.60
2022-09-11T19:57:13.334Z,55.30
2022-09-11T20:00:14.695Z,55.50
2022-09-11T20:03:15.927Z,55.40
2022-09-11T20:06:17.843Z,55.60
2022-09-11T20:09:30.929Z,55.40
2022-09-11T20:12:36.290Z,55.50
2022-09-11T20:15:37.725Z,55.50
2022-09-11T20:18:39.427Z,55.50
2022-09-11T20:21:40.704Z,55.40
2022-09-11T20:24:42.595Z,55.60
2022-09-11T20:27:44.107Z,55.50
2022-09-11T20:30:45.429Z,55.50
2022-09-11T20:33:48.549Z,55.60
2022-09-11T20:36:49.796Z,55.60
2022-09-11T20:39:51.625Z,55.60
2022-09-11T20:42:53.023Z,55.90
2022-09-11T20:45:54.295Z,55.60
2022-09-11T20:48:56.677Z,55.50
2022-09-11T20:51:57.968Z,55.60
2022-09-11T20:55:00.635Z,55.60
2022-09-11T20:58:05.269Z,55.50
2022-09-11T21:01:07.214Z,55.70
2022-09-11T21:04:09.331Z,55.50
2022-09-11T21:07:10.593Z,55.60
2022-09-11T21:10:14.105Z,55.50
2022-09-11T21:13:15.942Z,55.50
2022-09-11T21:16:18.782Z,55.50
2022-09-11T21:19:20.181Z,55.60
2022-09-11T21:22:21.511Z,55.60
2022-09-11T21:25:23.401Z,55.50
2022-09-11T21:28:24.895Z,55.50
2022-09-11T21:31:26.469Z,55.60
2022-09-11T21:34:27.755Z,56.00
2022-09-11T21:37:31.310Z,55.70
2022-09-11T21:40:33.356Z,55.50
2022-09-11T21:43:35.180Z,55.70
2022-09-11T21:46:36.654Z,55.40
2022-09-11T21:49:38.011Z,55.70
2022-09-11T21:52:39.301Z,55.40
2022-09-11T21:55:42.002Z,55.50
2022-09-11T21:58:46.508Z,55.40
2022-09-11T22:01:47.810Z,55.40
2022-09-11T22:04:49.076Z,55.30
2022-09-11T22:07:50.547Z,55.50
2022-09-11T22:10:52.458Z,55.40
2022-09-11T22:13:54.131Z,55.30
2022-09-11T22:16:55.401Z,55.40
2022-09-11T22:19:56.773Z,55.30
2022-09-11T22:22:59.413Z,55.40
2022-09-11T22:26:01.827Z,55.30
2022-09-11T22:29:03.478Z,55.10
2022-09-11T22:32:05.115Z,55.30
2022-09-11T22:35:06.549Z,55.40
2022-09-11T22:38:07.999Z,55.30
2022-09-11T22:41:09.911Z,55.30
2022-09-11T22:44:11.494Z,55.20
2022-09-11T22:47:12.743Z,55.20
2022-09-11T22:50:14.064Z,55.20
2022-09-11T22:53:15.555Z,55.20
2022-09-11T22:56:17.397Z,55.40
2022-09-11T22:59:18.880Z,55.30
2022-09-11T23:02:20.556Z,55.40
2022-09-11T23:05:36.483Z,55.20
2022-09-11T23:08:39.477Z,55.40
2022-09-11T23:11:41.387Z,55.30
2022-09-11T23:14:42.619Z,55.90
2022-09-11T23:17:43.866Z,55.30
2022-09-11T23:20:45.837Z,55.30
2022-09-11T23:23:51.551Z,55.30
2022-09-11T23:26:56.162Z,55.30
2022-09-11T23:30:00.630Z,55.30
2022-09-11T23:33:01.944Z,55.20
2022-09-11T23:36:03.953Z,55.20
2022-09-11T23:39:05.698Z,55.30
2022-09-11T23:42:07.585Z,55.30
2022-09-11T23:45:11.858Z,55.30
2022-09-11T23:48:13.119Z,55.30
2022-09-11T23:51:14.824Z,55.30
2022-09-11T23:54:16.080Z,55.30
2022-09-11T23:57:17.962Z,55.20
